LGKO

Kos Airport

Kos Island, Greece
TAF LGKO 221700Z 2218/2318 29017KT 9999 FEW020 TEMPO 2300/2306 29007KT
Issued Valid From Valid To
Jul-22 @ 17:00 UTC
(3 hours ago)
Jul-22 @ 18:00 UTC
(2 hours ago)
Jul-23 @ 18:00 UTC
(in 22 hours)
Jul-22 @ 18:00 to Jul-23 @ 18:00
TAF LGKO 221700Z 2218/2318 29017KT 9999 FEW020
Wind Visibility Clouds
290° at 17 knots 10,000+ meters
  • Few at 2,000' AGL
Temporary Jul-23 @ 00:00 to Jul-23 @ 06:00
TEMPO 2300/2306 29007KT
Wind
290° at 7 knots
TAF LGKO 221700Z 2218/2318 29017KT 9999 FEW020 TEMPO 2300/2306 29007KT
Issued Jul-22 @ 17:00 UTC
(3 hours ago)
Valid From Jul-22 @ 18:00 UTC
(2 hours ago)
Valid To Jul-23 @ 18:00 UTC
(in 22 hours)
Jul-22 @ 18:00 - Jul-23 @ 18:00
Wind Visibility
290° at 17 knots 10,000+ meters
Clouds
  • Few at 2,000' AGL
Temporary Jul-23 @ 00:00 - Jul-23 @ 06:00
Wind
290° at 7 knots